CheckWX is a tool to help pilots better visualize weather data.  It is not intended as a substitute for an official pre-flight weather briefing.

08:23:40 UTC

LDDU METAR
Dubrovnik Airport
Dubrovnik, Croatia
Current

24 mins ago

LDDU 270800Z 04024G42KT 330V080 9999 FEW025 06/M00 Q1004 TEMPO VRB15G25KT
Observed
Feb-27 @ 08:00 UTC
Wind
  • 040° at 24 KTS
  • Gusting to 42 KTS
Visibility
10,000+ meters
Flight Rules
VFR
Cloud Levels
  • Few at 2,500' AGL
Temperature
C / 43°F
Dewpoint
C / 32°F
Humidity
66%
Altimeter
29.65" Hg
Pressure
1003.92 hPa
Previous

54 mins ago

LDDU 270730Z 04020G33KT 340V140 9999 FEW020 06/01 Q1003 TEMPO VRB15G25KT
Observed
Feb-27 @ 07:30 UTC
Wind
  • 040° at 20 KTS
  • Gusting to 33 KTS
Visibility
10,000+ meters
Flight Rules
VFR
Cloud Levels
  • Few at 2,000' AGL
Temperature
C / 43°F
Dewpoint
C / 34°F
Humidity
71%
Altimeter
29.62" Hg
Pressure
1002.92 hPa
Previous

1 hour ago

LDDU 270700Z 03020G31KT 330V100 9999 FEW020 05/01 Q1002 TEMPO VRB15G25KT
Observed
Feb-27 @ 07:00 UTC
Wind
  • 030° at 20 KTS
  • Gusting to 31 KTS
Visibility
10,000+ meters
Flight Rules
VFR
Cloud Levels
  • Few at 2,000' AGL
Temperature
C / 41°F
Dewpoint
C / 34°F
Humidity
76%
Altimeter
29.59" Hg
Pressure
1001.92 hPa